Estestar — 3ECR8 — position and weather

sailwx.info

Track history (hours):
 
Tides and Currents Weather Stations Pressure Air Temp Water Temp Dewpoint Dewpoint Depression Visibility Wind Speed Wind Dir Waves Ship Positions

Estestar

Last reported at 2017-Jan-22 11:33 UTC. Time now 2017-Jan-22 12:07 UTC.
Position N 44°31' E 012°29'.

Length 133 m; draft 7.5 m.

Type: Cargo ship. MMSI: 371448000.

Date/timePositionNaut miles runAvg speedWind from/ knotsBaromVisibWave heightAir tempDewpointWater temp
2017-Jan-22 11:33N 44°31' E 012°29'2 1.8
2017-Jan-22 10:33N 44°31' E 012°31'9 8.4
2017-Jan-22 09:31N 44°30' E 012°43'12 9.3
2017-Jan-22 08:12N 44°28' E 013°00'6 9.2
2017-Jan-22 07:33N 44°27' E 013°08'9 9.3
2017-Jan-22 06:33N 44°18' E 013°14'  
2017-Jan-18 20:32N 36°24' E 014°40'1010.4
2017-Jan-18 19:33N 36°25' E 014°28'1110.3
2017-Jan-18 18:32N 36°28' E 014°15'1010.4
2017-Jan-18 17:32N 36°31' E 014°03'13010.0
2017-Jan-18 04:33N 37°14' E 011°30'1010.2
2017-Jan-18 03:33N 37°18' E 011°18'9 9.1
2017-Jan-18 02:34N 37°22' E 011°08'  
2017-Jan-13 08:30N 38°14' W 009°59'1010.7
2017-Jan-13 07:32N 38°24' W 010°02'1010.6
2017-Jan-13 06:33N 38°34' W 010°05'1110.6
2017-Jan-13 05:33N 38°44' W 010°08'1110.6
2017-Jan-13 04:33N 38°55' W 010°08'1310.7
2017-Jan-13 03:18N 39°08' W 010°07'  
Track history (hours):
 
Tides and Currents Weather Stations Pressure Air Temp Water Temp Dewpoint Dewpoint Depression Visibility Wind Speed Wind Dir Waves Ship Positions

Estestar

Last reported at 2017-Jan-22 11:33 UTC. Time now 2017-Jan-22 12:07 UTC.
Position N 44°31' E 012°29'.

Length 133 m; draft 7.5 m.

Type: Cargo ship. MMSI: 371448000.

Date/timePositionNaut miles runAvg speedWind from/ knotsBaromVisibWave heightAir tempDewpointWater temp
2017-Jan-22 11:33N 44°31' E 012°29'2 1.8
2017-Jan-22 10:33N 44°31' E 012°31'9 8.4
2017-Jan-22 09:31N 44°30' E 012°43'12 9.3
2017-Jan-22 08:12N 44°28' E 013°00'6 9.2
2017-Jan-22 07:33N 44°27' E 013°08'9 9.3
2017-Jan-22 06:33N 44°18' E 013°14'  
2017-Jan-18 20:32N 36°24' E 014°40'1010.4
2017-Jan-18 19:33N 36°25' E 014°28'1110.3
2017-Jan-18 18:32N 36°28' E 014°15'1010.4
2017-Jan-18 17:32N 36°31' E 014°03'13010.0
2017-Jan-18 04:33N 37°14' E 011°30'1010.2
2017-Jan-18 03:33N 37°18' E 011°18'9 9.1
2017-Jan-18 02:34N 37°22' E 011°08'  
2017-Jan-13 08:30N 38°14' W 009°59'1010.7
2017-Jan-13 07:32N 38°24' W 010°02'1010.6
2017-Jan-13 06:33N 38°34' W 010°05'1110.6
2017-Jan-13 05:33N 38°44' W 010°08'1110.6
2017-Jan-13 04:33N 38°55' W 010°08'1310.7
2017-Jan-13 03:18N 39°08' W 010°07'  

Dump ship's entire track history